sensor_id;sensor_type;location;lat;lon;timestamp;temperature;humidity
74384;DHT22;62824;52.994;-3.936;2023-02-15T00:00:22;5.90;99.90
74384;DHT22;62824;52.994;-3.936;2023-02-15T00:02:48;5.90;99.90
74384;DHT22;62824;52.994;-3.936;2023-02-15T00:05:14;5.90;99.90
74384;DHT22;62824;52.994;-3.936;2023-02-15T00:07:39;5.90;99.90
74384;DHT22;62824;52.994;-3.936;2023-02-15T00:10:06;6.00;99.90
74384;DHT22;62824;52.994;-3.936;2023-02-15T00:12:32;5.90;99.90
74384;DHT22;62824;52.994;-3.936;2023-02-15T00:14:58;5.80;99.90
74384;DHT22;62824;52.994;-3.936;2023-02-15T00:17:24;5.80;99.90
74384;DHT22;62824;52.994;-3.936;2023-02-15T00:19:49;5.70;99.90
74384;DHT22;62824;52.994;-3.936;2023-02-15T00:22:15;5.80;99.90
74384;DHT22;62824;52.994;-3.936;2023-02-15T00:24:41;5.70;99.90
74384;DHT22;62824;52.994;-3.936;2023-02-15T00:27:06;5.50;99.90
74384;DHT22;62824;52.994;-3.936;2023-02-15T00:29:34;5.50;99.90
74384;DHT22;62824;52.994;-3.936;2023-02-15T00:32:00;5.40;99.90
74384;DHT22;62824;52.994;-3.936;2023-02-15T00:34:27;5.40;99.90
74384;DHT22;62824;52.994;-3.936;2023-02-15T00:36:53;5.40;99.90
74384;DHT22;62824;52.994;-3.936;2023-02-15T00:39:19;5.40;99.90
74384;DHT22;62824;52.994;-3.936;2023-02-15T00:41:46;5.40;99.90
74384;DHT22;62824;52.994;-3.936;2023-02-15T00:44:13;5.40;99.90
74384;DHT22;62824;52.994;-3.936;2023-02-15T00:46:38;5.40;99.90
74384;DHT22;62824;52.994;-3.936;2023-02-15T00:49:05;5.30;99.90
74384;DHT22;62824;52.994;-3.936;2023-02-15T00:51:31;5.30;99.90
74384;DHT22;62824;52.994;-3.936;2023-02-15T00:53:57;5.20;99.90
74384;DHT22;62824;52.994;-3.936;2023-02-15T00:56:23;5.30;99.90
74384;DHT22;62824;52.994;-3.936;2023-02-15T00:58:49;5.30;99.90
74384;DHT22;62824;52.994;-3.936;2023-02-15T01:01:17;5.30;99.90
74384;DHT22;62824;52.994;-3.936;2023-02-15T01:03:44;5.30;99.90
74384;DHT22;62824;52.994;-3.936;2023-02-15T01:06:11;5.30;99.90
74384;DHT22;62824;52.994;-3.936;2023-02-15T01:08:37;5.40;99.90
74384;DHT22;62824;52.994;-3.936;2023-02-15T01:11:05;5.40;99.90
74384;DHT22;62824;52.994;-3.936;2023-02-15T01:13:31;5.50;99.90
74384;DHT22;62824;52.994;-3.936;2023-02-15T01:15:57;5.50;99.90
74384;DHT22;62824;52.994;-3.936;2023-02-15T01:18:23;5.50;99.90
74384;DHT22;62824;52.994;-3.936;2023-02-15T01:20:49;5.50;99.90
74384;DHT22;62824;52.994;-3.936;2023-02-15T01:23:15;5.40;99.90
74384;DHT22;62824;52.994;-3.936;2023-02-15T01:25:41;5.40;99.90
74384;DHT22;62824;52.994;-3.936;2023-02-15T01:28:07;5.30;99.90
74384;DHT22;62824;52.994;-3.936;2023-02-15T01:30:33;5.20;99.90
74384;DHT22;62824;52.994;-3.936;2023-02-15T01:32:59;5.20;99.90
74384;DHT22;62824;52.994;-3.936;2023-02-15T01:35:26;5.20;99.90
74384;DHT22;62824;52.994;-3.936;2023-02-15T01:37:52;5.20;99.90
74384;DHT22;62824;52.994;-3.936;2023-02-15T01:40:18;5.20;99.90
74384;DHT22;62824;52.994;-3.936;2023-02-15T01:42:44;5.20;99.90
74384;DHT22;62824;52.994;-3.936;2023-02-15T01:45:30;5.30;99.90
74384;DHT22;62824;52.994;-3.936;2023-02-15T01:48:26;5.20;99.90
74384;DHT22;62824;52.994;-3.936;2023-02-15T01:50:56;5.20;99.90
74384;DHT22;62824;52.994;-3.936;2023-02-15T01:53:46;5.20;99.90
74384;DHT22;62824;52.994;-3.936;2023-02-15T01:56:17;5.20;99.90
74384;DHT22;62824;52.994;-3.936;2023-02-15T01:58:44;5.20;99.90
74384;DHT22;62824;52.994;-3.936;2023-02-15T02:01:10;5.10;99.90
74384;DHT22;62824;52.994;-3.936;2023-02-15T02:06:08;5.00;99.90
74384;DHT22;62824;52.994;-3.936;2023-02-15T02:08:34;5.10;99.90
74384;DHT22;62824;52.994;-3.936;2023-02-15T02:10:59;5.00;99.90
74384;DHT22;62824;52.994;-3.936;2023-02-15T02:13:25;5.10;99.90
74384;DHT22;62824;52.994;-3.936;2023-02-15T02:16:27;5.10;99.90
74384;DHT22;62824;52.994;-3.936;2023-02-15T02:21:24;5.00;99.90
74384;DHT22;62824;52.994;-3.936;2023-02-15T02:42:44;5.20;99.90
74384;DHT22;62824;52.994;-3.936;2023-02-15T02:47:52;5.20;99.90
74384;DHT22;62824;52.994;-3.936;2023-02-15T02:50:24;5.10;99.90
74384;DHT22;62824;52.994;-3.936;2023-02-15T02:52:53;5.10;99.90
74384;DHT22;62824;52.994;-3.936;2023-02-15T02:55:34;5.10;99.90
74384;DHT22;62824;52.994;-3.936;2023-02-15T02:58:25;5.00;99.90
74384;DHT22;62824;52.994;-3.936;2023-02-15T03:00:57;5.00;99.90
74384;DHT22;62824;52.994;-3.936;2023-02-15T03:03:38;4.90;99.90
74384;DHT22;62824;52.994;-3.936;2023-02-15T03:06:27;4.90;99.90
74384;DHT22;62824;52.994;-3.936;2023-02-15T03:08:59;4.80;99.90
74384;DHT22;62824;52.994;-3.936;2023-02-15T03:11:27;4.70;99.90
74384;DHT22;62824;52.994;-3.936;2023-02-15T03:13:53;4.60;99.90
74384;DHT22;62824;52.994;-3.936;2023-02-15T03:16:19;4.60;99.90
74384;DHT22;62824;52.994;-3.936;2023-02-15T03:19:12;4.50;99.90
74384;DHT22;62824;52.994;-3.936;2023-02-15T03:21:49;4.50;99.90
74384;DHT22;62824;52.994;-3.936;2023-02-15T03:24:36;4.40;99.90
74384;DHT22;62824;52.994;-3.936;2023-02-15T03:27:07;4.50;99.90
74384;DHT22;62824;52.994;-3.936;2023-02-15T03:29:37;4.40;99.90
74384;DHT22;62824;52.994;-3.936;2023-02-15T03:32:06;4.50;99.90
74384;DHT22;62824;52.994;-3.936;2023-02-15T03:34:33;4.50;99.90
74384;DHT22;62824;52.994;-3.936;2023-02-15T03:47:32;4.40;99.90
74384;DHT22;62824;52.994;-3.936;2023-02-15T03:50:10;4.50;99.90
74384;DHT22;62824;52.994;-3.936;2023-02-15T03:52:58;4.50;99.90
74384;DHT22;62824;52.994;-3.936;2023-02-15T03:55:26;4.50;99.90
74384;DHT22;62824;52.994;-3.936;2023-02-15T03:57:52;4.60;99.90
74384;DHT22;62824;52.994;-3.936;2023-02-15T04:00:40;4.60;99.90
74384;DHT22;62824;52.994;-3.936;2023-02-15T04:03:41;4.60;99.90
74384;DHT22;62824;52.994;-3.936;2023-02-15T04:06:07;4.50;99.90
74384;DHT22;62824;52.994;-3.936;2023-02-15T04:08:33;4.50;99.90
74384;DHT22;62824;52.994;-3.936;2023-02-15T04:11:17;4.50;99.90
74384;DHT22;62824;52.994;-3.936;2023-02-15T04:13:43;4.40;99.90
74384;DHT22;62824;52.994;-3.936;2023-02-15T04:16:09;4.30;99.90
74384;DHT22;62824;52.994;-3.936;2023-02-15T04:18:39;4.30;99.90
74384;DHT22;62824;52.994;-3.936;2023-02-15T04:21:25;4.20;99.90
74384;DHT22;62824;52.994;-3.936;2023-02-15T04:24:10;4.20;99.90
74384;DHT22;62824;52.994;-3.936;2023-02-15T04:26:55;4.20;99.90
74384;DHT22;62824;52.994;-3.936;2023-02-15T04:29:25;4.20;99.90
74384;DHT22;62824;52.994;-3.936;2023-02-15T04:31:52;4.20;99.90
74384;DHT22;62824;52.994;-3.936;2023-02-15T04:34:18;4.20;99.90
74384;DHT22;62824;52.994;-3.936;2023-02-15T04:36:44;4.20;99.90
74384;DHT22;62824;52.994;-3.936;2023-02-15T04:39:13;4.20;99.90
74384;DHT22;62824;52.994;-3.936;2023-02-15T04:41:39;4.20;99.90
74384;DHT22;62824;52.994;-3.936;2023-02-15T04:44:05;4.20;99.90
74384;DHT22;62824;52.994;-3.936;2023-02-15T04:46:30;4.20;99.90
74384;DHT22;62824;52.994;-3.936;2023-02-15T04:48:56;4.30;99.90
74384;DHT22;62824;52.994;-3.936;2023-02-15T04:51:22;4.40;99.90
74384;DHT22;62824;52.994;-3.936;2023-02-15T04:53:48;4.50;99.90
74384;DHT22;62824;52.994;-3.936;2023-02-15T04:56:14;4.60;99.90
74384;DHT22;62824;52.994;-3.936;2023-02-15T04:58:40;4.70;99.90
74384;DHT22;62824;52.994;-3.936;2023-02-15T05:01:09;4.70;99.90
74384;DHT22;62824;52.994;-3.936;2023-02-15T05:03:35;4.70;99.90
74384;DHT22;62824;52.994;-3.936;2023-02-15T05:06:01;4.70;99.90
74384;DHT22;62824;52.994;-3.936;2023-02-15T05:08:27;4.60;99.90
74384;DHT22;62824;52.994;-3.936;2023-02-15T05:10:52;4.50;99.90
74384;DHT22;62824;52.994;-3.936;2023-02-15T05:13:18;4.50;99.90
74384;DHT22;62824;52.994;-3.936;2023-02-15T05:15:51;4.50;99.90
74384;DHT22;62824;52.994;-3.936;2023-02-15T05:18:18;4.40;99.90
74384;DHT22;62824;52.994;-3.936;2023-02-15T05:20:44;4.50;99.90
74384;DHT22;62824;52.994;-3.936;2023-02-15T05:23:10;4.40;99.90
74384;DHT22;62824;52.994;-3.936;2023-02-15T05:25:36;4.50;99.90
74384;DHT22;62824;52.994;-3.936;2023-02-15T05:28:21;4.50;99.90
74384;DHT22;62824;52.994;-3.936;2023-02-15T05:31:05;4.50;99.90
74384;DHT22;62824;52.994;-3.936;2023-02-15T05:33:32;4.40;99.90
74384;DHT22;62824;52.994;-3.936;2023-02-15T05:35:58;4.40;99.90
74384;DHT22;62824;52.994;-3.936;2023-02-15T05:38:24;4.40;99.90
74384;DHT22;62824;52.994;-3.936;2023-02-15T05:40:53;4.40;99.90
74384;DHT22;62824;52.994;-3.936;2023-02-15T05:43:19;4.40;99.90
74384;DHT22;62824;52.994;-3.936;2023-02-15T05:45:46;4.40;99.90
74384;DHT22;62824;52.994;-3.936;2023-02-15T05:48:11;4.40;99.90
74384;DHT22;62824;52.994;-3.936;2023-02-15T05:50:37;4.50;99.90
74384;DHT22;62824;52.994;-3.936;2023-02-15T05:53:03;4.50;99.90
74384;DHT22;62824;52.994;-3.936;2023-02-15T05:55:29;4.50;99.90
74384;DHT22;62824;52.994;-3.936;2023-02-15T05:57:54;4.60;99.90
74384;DHT22;62824;52.994;-3.936;2023-02-15T06:00:20;4.70;99.90
74384;DHT22;62824;52.994;-3.936;2023-02-15T06:02:46;4.70;99.90
74384;DHT22;62824;52.994;-3.936;2023-02-15T06:05:11;4.70;99.90
74384;DHT22;62824;52.994;-3.936;2023-02-15T06:07:37;4.70;99.90
74384;DHT22;62824;52.994;-3.936;2023-02-15T06:10:04;4.60;99.90
74384;DHT22;62824;52.994;-3.936;2023-02-15T06:12:30;4.70;99.90
74384;DHT22;62824;52.994;-3.936;2023-02-15T06:14:56;4.70;99.90
74384;DHT22;62824;52.994;-3.936;2023-02-15T06:17:21;4.70;99.90
74384;DHT22;62824;52.994;-3.936;2023-02-15T06:19:47;4.70;99.90
74384;DHT22;62824;52.994;-3.936;2023-02-15T06:22:13;4.70;99.90
74384;DHT22;62824;52.994;-3.936;2023-02-15T06:24:39;5.00;99.90
74384;DHT22;62824;52.994;-3.936;2023-02-15T06:27:05;5.10;99.90
74384;DHT22;62824;52.994;-3.936;2023-02-15T06:29:31;5.10;99.90
74384;DHT22;62824;52.994;-3.936;2023-02-15T06:31:56;5.10;99.90
74384;DHT22;62824;52.994;-3.936;2023-02-15T06:34:22;5.00;99.90
74384;DHT22;62824;52.994;-3.936;2023-02-15T06:36:48;5.00;99.90
74384;DHT22;62824;52.994;-3.936;2023-02-15T06:39:13;4.90;99.90
74384;DHT22;62824;52.994;-3.936;2023-02-15T06:41:39;4.90;99.90
74384;DHT22;62824;52.994;-3.936;2023-02-15T06:44:05;4.90;99.90
74384;DHT22;62824;52.994;-3.936;2023-02-15T06:46:31;4.80;99.90
74384;DHT22;62824;52.994;-3.936;2023-02-15T06:48:57;4.80;99.90
74384;DHT22;62824;52.994;-3.936;2023-02-15T06:51:23;4.80;99.90
74384;DHT22;62824;52.994;-3.936;2023-02-15T06:53:49;4.80;99.90
74384;DHT22;62824;52.994;-3.936;2023-02-15T06:56:14;4.90;99.90
74384;DHT22;62824;52.994;-3.936;2023-02-15T06:58:41;5.00;99.90
74384;DHT22;62824;52.994;-3.936;2023-02-15T07:01:08;4.90;99.90
74384;DHT22;62824;52.994;-3.936;2023-02-15T07:03:34;4.90;99.90
74384;DHT22;62824;52.994;-3.936;2023-02-15T07:06:02;4.90;99.90
74384;DHT22;62824;52.994;-3.936;2023-02-15T07:08:31;4.80;99.90
74384;DHT22;62824;52.994;-3.936;2023-02-15T07:10:56;4.80;99.90
74384;DHT22;62824;52.994;-3.936;2023-02-15T07:13:43;4.90;99.90
74384;DHT22;62824;52.994;-3.936;2023-02-15T07:16:09;5.00;99.90
74384;DHT22;62824;52.994;-3.936;2023-02-15T07:18:35;5.10;99.90
74384;DHT22;62824;52.994;-3.936;2023-02-15T07:21:01;5.20;99.90
74384;DHT22;62824;52.994;-3.936;2023-02-15T07:23:27;5.30;99.90
74384;DHT22;62824;52.994;-3.936;2023-02-15T07:26:00;5.50;99.90
74384;DHT22;62824;52.994;-3.936;2023-02-15T07:28:27;5.60;99.90
74384;DHT22;62824;52.994;-3.936;2023-02-15T07:30:53;5.70;99.90
74384;DHT22;62824;52.994;-3.936;2023-02-15T07:33:19;5.80;99.90
74384;DHT22;62824;52.994;-3.936;2023-02-15T07:35:54;5.90;99.90
74384;DHT22;62824;52.994;-3.936;2023-02-15T07:38:21;6.00;99.90
74384;DHT22;62824;52.994;-3.936;2023-02-15T07:40:47;6.10;99.90
74384;DHT22;62824;52.994;-3.936;2023-02-15T07:43:13;6.10;99.90
74384;DHT22;62824;52.994;-3.936;2023-02-15T07:45:39;6.20;99.90
74384;DHT22;62824;52.994;-3.936;2023-02-15T07:48:06;6.30;99.90
74384;DHT22;62824;52.994;-3.936;2023-02-15T07:50:32;6.40;99.90
74384;DHT22;62824;52.994;-3.936;2023-02-15T07:52:58;6.40;99.90
74384;DHT22;62824;52.994;-3.936;2023-02-15T07:55:23;6.50;99.90
74384;DHT22;62824;52.994;-3.936;2023-02-15T07:57:51;6.60;99.90
74384;DHT22;62824;52.994;-3.936;2023-02-15T08:00:18;6.60;99.90
74384;DHT22;62824;52.994;-3.936;2023-02-15T08:02:50;6.60;99.90
74384;DHT22;62824;52.994;-3.936;2023-02-15T08:05:35;6.70;99.90
74384;DHT22;62824;52.994;-3.936;2023-02-15T08:08:01;6.70;99.90
74384;DHT22;62824;52.994;-3.936;2023-02-15T08:10:27;6.70;99.90
74384;DHT22;62824;52.994;-3.936;2023-02-15T08:13:12;6.80;99.90
74384;DHT22;62824;52.994;-3.936;2023-02-15T08:15:38;6.90;99.90
74384;DHT22;62824;52.994;-3.936;2023-02-15T08:18:04;7.00;99.90
74384;DHT22;62824;52.994;-3.936;2023-02-15T08:20:29;7.10;99.90
74384;DHT22;62824;52.994;-3.936;2023-02-15T08:22:55;7.20;99.90
74384;DHT22;62824;52.994;-3.936;2023-02-15T08:25:21;7.20;99.90
74384;DHT22;62824;52.994;-3.936;2023-02-15T08:27:47;7.20;99.90
74384;DHT22;62824;52.994;-3.936;2023-02-15T08:30:13;7.30;99.90
74384;DHT22;62824;52.994;-3.936;2023-02-15T08:32:39;7.30;99.90
74384;DHT22;62824;52.994;-3.936;2023-02-15T08:35:05;7.30;99.90
74384;DHT22;62824;52.994;-3.936;2023-02-15T08:37:31;7.40;99.90
74384;DHT22;62824;52.994;-3.936;2023-02-15T08:39:57;7.40;99.90
74384;DHT22;62824;52.994;-3.936;2023-02-15T08:42:23;7.40;99.90
74384;DHT22;62824;52.994;-3.936;2023-02-15T08:44:49;7.50;99.90
74384;DHT22;62824;52.994;-3.936;2023-02-15T08:47:16;7.50;99.90
74384;DHT22;62824;52.994;-3.936;2023-02-15T08:49:41;7.60;99.90
74384;DHT22;62824;52.994;-3.936;2023-02-15T08:52:07;7.60;99.90
74384;DHT22;62824;52.994;-3.936;2023-02-15T08:54:33;7.70;99.90
74384;DHT22;62824;52.994;-3.936;2023-02-15T08:56:59;7.70;99.90
74384;DHT22;62824;52.994;-3.936;2023-02-15T08:59:25;7.80;99.90
74384;DHT22;62824;52.994;-3.936;2023-02-15T09:01:53;7.80;99.90
74384;DHT22;62824;52.994;-3.936;2023-02-15T09:04:19;7.90;99.90
74384;DHT22;62824;52.994;-3.936;2023-02-15T09:06:47;7.90;99.90
74384;DHT22;62824;52.994;-3.936;2023-02-15T09:09:14;7.90;99.90
74384;DHT22;62824;52.994;-3.936;2023-02-15T09:11:42;8.00;99.90
74384;DHT22;62824;52.994;-3.936;2023-02-15T09:14:11;8.00;99.90
74384;DHT22;62824;52.994;-3.936;2023-02-15T09:16:39;8.00;99.90
74384;DHT22;62824;52.994;-3.936;2023-02-15T09:19:06;8.10;99.90
74384;DHT22;62824;52.994;-3.936;2023-02-15T09:21:34;8.10;99.90
74384;DHT22;62824;52.994;-3.936;2023-02-15T09:24:04;8.10;99.90
74384;DHT22;62824;52.994;-3.936;2023-02-15T09:26:31;8.20;99.90
74384;DHT22;62824;52.994;-3.936;2023-02-15T09:29:00;8.20;99.90
74384;DHT22;62824;52.994;-3.936;2023-02-15T09:31:43;8.20;99.90
74384;DHT22;62824;52.994;-3.936;2023-02-15T09:34:10;8.30;99.90
74384;DHT22;62824;52.994;-3.936;2023-02-15T09:36:38;8.30;99.90
74384;DHT22;62824;52.994;-3.936;2023-02-15T09:44:17;8.40;99.90
74384;DHT22;62824;52.994;-3.936;2023-02-15T09:54:42;8.40;99.90
74384;DHT22;62824;52.994;-3.936;2023-02-15T09:57:30;8.40;99.90
74384;DHT22;62824;52.994;-3.936;2023-02-15T10:00:13;8.40;99.90
74384;DHT22;62824;52.994;-3.936;2023-02-15T10:16:31;8.30;99.90
74384;DHT22;62824;52.994;-3.936;2023-02-15T10:19:23;8.30;99.90
74384;DHT22;62824;52.994;-3.936;2023-02-15T10:27:26;8.20;99.90
74384;DHT22;62824;52.994;-3.936;2023-02-15T10:30:10;8.20;99.90
74384;DHT22;62824;52.994;-3.936;2023-02-15T10:35:50;8.30;99.90
74384;DHT22;62824;52.994;-3.936;2023-02-15T10:46:27;8.20;99.90
74384;DHT22;62824;52.994;-3.936;2023-02-15T11:00:25;8.10;99.90
74384;DHT22;62824;52.994;-3.936;2023-02-15T11:06:08;8.00;99.90
74384;DHT22;62824;52.994;-3.936;2023-02-15T11:09:04;8.00;99.90
74384;DHT22;62824;52.994;-3.936;2023-02-15T11:11:29;8.00;99.90
74384;DHT22;62824;52.994;-3.936;2023-02-15T11:14:02;8.10;99.90
74384;DHT22;62824;52.994;-3.936;2023-02-15T11:16:36;8.00;99.90
74384;DHT22;62824;52.994;-3.936;2023-02-15T11:21:48;7.90;99.90
74384;DHT22;62824;52.994;-3.936;2023-02-15T11:24:17;7.90;99.90
74384;DHT22;62824;52.994;-3.936;2023-02-15T11:26:57;8.00;99.90
74384;DHT22;62824;52.994;-3.936;2023-02-15T11:29:41;8.00;99.90
74384;DHT22;62824;52.994;-3.936;2023-02-15T11:32:32;8.00;99.90
74384;DHT22;62824;52.994;-3.936;2023-02-15T11:38:06;8.10;99.90
74384;DHT22;62824;52.994;-3.936;2023-02-15T11:40:48;8.20;99.90
74384;DHT22;62824;52.994;-3.936;2023-02-15T11:45:47;8.20;99.90
74384;DHT22;62824;52.994;-3.936;2023-02-15T11:48:14;8.30;99.90
74384;DHT22;62824;52.994;-3.936;2023-02-15T11:50:42;8.30;99.90
74384;DHT22;62824;52.994;-3.936;2023-02-15T11:53:18;8.40;99.90
74384;DHT22;62824;52.994;-3.936;2023-02-15T11:55:46;8.40;99.90
74384;DHT22;62824;52.994;-3.936;2023-02-15T12:01:06;8.40;99.90
74384;DHT22;62824;52.994;-3.936;2023-02-15T12:03:48;8.50;99.90
74384;DHT22;62824;52.994;-3.936;2023-02-15T12:06:33;8.50;99.90
74384;DHT22;62824;52.994;-3.936;2023-02-15T12:11:51;8.50;99.90
74384;DHT22;62824;52.994;-3.936;2023-02-15T12:14:17;8.60;99.90
74384;DHT22;62824;52.994;-3.936;2023-02-15T12:16:48;8.70;99.90
74384;DHT22;62824;52.994;-3.936;2023-02-15T12:19:27;8.90;99.90
74384;DHT22;62824;52.994;-3.936;2023-02-15T12:21:53;9.00;99.90
74384;DHT22;62824;52.994;-3.936;2023-02-15T12:24:27;9.00;99.90
74384;DHT22;62824;52.994;-3.936;2023-02-15T12:27:01;9.10;99.90
74384;DHT22;62824;52.994;-3.936;2023-02-15T12:29:31;9.10;99.90
74384;DHT22;62824;52.994;-3.936;2023-02-15T12:32:00;9.80;99.90
74384;DHT22;62824;52.994;-3.936;2023-02-15T12:34:30;10.50;99.90
74384;DHT22;62824;52.994;-3.936;2023-02-15T12:37:01;10.70;99.90
74384;DHT22;62824;52.994;-3.936;2023-02-15T12:39:29;10.50;99.90
74384;DHT22;62824;52.994;-3.936;2023-02-15T12:44:24;10.50;99.90
74384;DHT22;62824;52.994;-3.936;2023-02-15T12:49:42;10.10;99.90
74384;DHT22;62824;52.994;-3.936;2023-02-15T12:54:45;10.10;99.90
74384;DHT22;62824;52.994;-3.936;2023-02-15T12:57:28;10.10;99.90
74384;DHT22;62824;52.994;-3.936;2023-02-15T12:59:59;10.10;99.90
74384;DHT22;62824;52.994;-3.936;2023-02-15T13:02:42;10.10;99.90
74384;DHT22;62824;52.994;-3.936;2023-02-15T13:08:15;9.80;99.90
74384;DHT22;62824;52.994;-3.936;2023-02-15T13:13:25;9.90;99.90
74384;DHT22;62824;52.994;-3.936;2023-02-15T13:16:03;9.90;99.90
74384;DHT22;62824;52.994;-3.936;2023-02-15T13:18:34;10.90;99.90
74384;DHT22;62824;52.994;-3.936;2023-02-15T13:21:15;10.70;99.90
74384;DHT22;62824;52.994;-3.936;2023-02-15T13:23:48;10.50;99.90
74384;DHT22;62824;52.994;-3.936;2023-02-15T13:26:19;10.30;99.90
74384;DHT22;62824;52.994;-3.936;2023-02-15T13:28:56;10.10;99.90
74384;DHT22;62824;52.994;-3.936;2023-02-15T13:31:28;9.90;99.90
74384;DHT22;62824;52.994;-3.936;2023-02-15T13:34:12;9.90;99.90
74384;DHT22;62824;52.994;-3.936;2023-02-15T13:39:40;9.60;99.90
74384;DHT22;62824;52.994;-3.936;2023-02-15T13:42:24;9.50;99.90
74384;DHT22;62824;52.994;-3.936;2023-02-15T13:52:28;9.30;99.90
74384;DHT22;62824;52.994;-3.936;2023-02-15T13:58:14;9.40;99.90
74384;DHT22;62824;52.994;-3.936;2023-02-15T14:00:55;9.40;99.90
74384;DHT22;62824;52.994;-3.936;2023-02-15T14:09:36;9.50;99.90
74384;DHT22;62824;52.994;-3.936;2023-02-15T14:20:41;9.50;99.90
74384;DHT22;62824;52.994;-3.936;2023-02-15T14:26:04;9.40;99.90
74384;DHT22;62824;52.994;-3.936;2023-02-15T14:31:34;9.40;99.90
74384;DHT22;62824;52.994;-3.936;2023-02-15T14:34:02;9.40;99.90
74384;DHT22;62824;52.994;-3.936;2023-02-15T14:36:30;9.50;99.90
74384;DHT22;62824;52.994;-3.936;2023-02-15T14:39:24;9.50;99.90
74384;DHT22;62824;52.994;-3.936;2023-02-15T14:45:04;9.30;99.90
74384;DHT22;62824;52.994;-3.936;2023-02-15T14:47:38;9.30;99.90
74384;DHT22;62824;52.994;-3.936;2023-02-15T14:53:35;9.40;99.90
74384;DHT22;62824;52.994;-3.936;2023-02-15T14:56:19;9.60;99.90
74384;DHT22;62824;52.994;-3.936;2023-02-15T15:02:39;9.60;99.90
74384;DHT22;62824;52.994;-3.936;2023-02-15T15:07:09;9.60;99.90
74384;DHT22;62824;52.994;-3.936;2023-02-15T15:09:37;9.60;99.90
74384;DHT22;62824;52.994;-3.936;2023-02-15T15:14:50;9.50;99.90
74384;DHT22;62824;52.994;-3.936;2023-02-15T15:22:49;9.20;99.90
74384;DHT22;62824;52.994;-3.936;2023-02-15T15:28:03;9.20;99.90
74384;DHT22;62824;52.994;-3.936;2023-02-15T15:49:12;9.10;99.90
74384;DHT22;62824;52.994;-3.936;2023-02-15T15:51:41;9.00;99.90
74384;DHT22;62824;52.994;-3.936;2023-02-15T15:54:22;9.00;99.90
74384;DHT22;62824;52.994;-3.936;2023-02-15T15:57:01;8.90;99.90
74384;DHT22;62824;52.994;-3.936;2023-02-15T15:59:32;8.90;99.90
74384;DHT22;62824;52.994;-3.936;2023-02-15T16:02:10;9.00;99.90
74384;DHT22;62824;52.994;-3.936;2023-02-15T16:04:37;8.90;99.90
74384;DHT22;62824;52.994;-3.936;2023-02-15T16:10:02;9.00;99.90
74384;DHT22;62824;52.994;-3.936;2023-02-15T16:12:31;9.00;99.90
74384;DHT22;62824;52.994;-3.936;2023-02-15T16:15:02;8.90;99.90
74384;DHT22;62824;52.994;-3.936;2023-02-15T16:17:31;8.90;99.90
74384;DHT22;62824;52.994;-3.936;2023-02-15T16:20:06;8.90;99.90
74384;DHT22;62824;52.994;-3.936;2023-02-15T16:22:33;8.90;99.90
74384;DHT22;62824;52.994;-3.936;2023-02-15T16:25:29;8.80;99.90
74384;DHT22;62824;52.994;-3.936;2023-02-15T16:27:57;8.80;99.90
74384;DHT22;62824;52.994;-3.936;2023-02-15T16:30:31;8.90;99.90
74384;DHT22;62824;52.994;-3.936;2023-02-15T16:33:05;8.90;99.90
74384;DHT22;62824;52.994;-3.936;2023-02-15T16:35:32;8.90;99.90
74384;DHT22;62824;52.994;-3.936;2023-02-15T16:37:58;9.00;99.90
74384;DHT22;62824;52.994;-3.936;2023-02-15T16:42:55;9.00;99.90
74384;DHT22;62824;52.994;-3.936;2023-02-15T16:45:23;8.90;99.90
74384;DHT22;62824;52.994;-3.936;2023-02-15T16:47:54;8.90;99.90
74384;DHT22;62824;52.994;-3.936;2023-02-15T16:50:26;8.90;99.90
74384;DHT22;62824;52.994;-3.936;2023-02-15T16:52:54;9.00;99.90
74384;DHT22;62824;52.994;-3.936;2023-02-15T16:55:24;8.90;99.90
74384;DHT22;62824;52.994;-3.936;2023-02-15T16:57:53;8.90;99.90
74384;DHT22;62824;52.994;-3.936;2023-02-15T17:00:22;8.90;99.90
74384;DHT22;62824;52.994;-3.936;2023-02-15T17:03:04;8.80;99.90
74384;DHT22;62824;52.994;-3.936;2023-02-15T17:05:33;8.80;99.90
74384;DHT22;62824;52.994;-3.936;2023-02-15T17:08:06;8.70;99.90
74384;DHT22;62824;52.994;-3.936;2023-02-15T17:10:39;8.70;99.90
74384;DHT22;62824;52.994;-3.936;2023-02-15T17:13:16;8.80;99.90
74384;DHT22;62824;52.994;-3.936;2023-02-15T17:16:15;8.70;99.90
74384;DHT22;62824;52.994;-3.936;2023-02-15T17:18:39;8.70;99.90
74384;DHT22;62824;52.994;-3.936;2023-02-15T17:21:20;8.70;99.90
74384;DHT22;62824;52.994;-3.936;2023-02-15T17:23:48;8.70;99.90
74384;DHT22;62824;52.994;-3.936;2023-02-15T17:26:19;8.70;99.90
74384;DHT22;62824;52.994;-3.936;2023-02-15T17:28:49;8.70;99.90
74384;DHT22;62824;52.994;-3.936;2023-02-15T17:31:17;8.60;99.90
74384;DHT22;62824;52.994;-3.936;2023-02-15T17:33:44;8.70;99.90
74384;DHT22;62824;52.994;-3.936;2023-02-15T17:41:29;8.60;99.90
74384;DHT22;62824;52.994;-3.936;2023-02-15T17:43:56;8.60;99.90
74384;DHT22;62824;52.994;-3.936;2023-02-15T17:46:22;8.50;99.90
74384;DHT22;62824;52.994;-3.936;2023-02-15T17:48:50;8.50;99.90
74384;DHT22;62824;52.994;-3.936;2023-02-15T17:51:18;8.50;99.90
74384;DHT22;62824;52.994;-3.936;2023-02-15T17:53:45;8.50;99.90
74384;DHT22;62824;52.994;-3.936;2023-02-15T17:56:30;8.50;99.90
74384;DHT22;62824;52.994;-3.936;2023-02-15T17:58:55;8.50;99.90
74384;DHT22;62824;52.994;-3.936;2023-02-15T18:01:21;8.50;99.90
74384;DHT22;62824;52.994;-3.936;2023-02-15T18:04:13;8.40;99.90
74384;DHT22;62824;52.994;-3.936;2023-02-15T18:06:58;8.40;99.90
74384;DHT22;62824;52.994;-3.936;2023-02-15T18:09:43;8.40;99.90
74384;DHT22;62824;52.994;-3.936;2023-02-15T18:12:32;8.30;99.90
74384;DHT22;62824;52.994;-3.936;2023-02-15T18:14:59;8.30;99.90
74384;DHT22;62824;52.994;-3.936;2023-02-15T18:17:32;8.20;99.90
74384;DHT22;62824;52.994;-3.936;2023-02-15T18:19:58;8.20;99.90
74384;DHT22;62824;52.994;-3.936;2023-02-15T18:22:27;8.20;99.90
74384;DHT22;62824;52.994;-3.936;2023-02-15T18:24:54;8.20;99.90
74384;DHT22;62824;52.994;-3.936;2023-02-15T18:27:19;8.20;99.90
74384;DHT22;62824;52.994;-3.936;2023-02-15T18:29:46;8.20;99.90
74384;DHT22;62824;52.994;-3.936;2023-02-15T18:32:23;8.20;99.90
74384;DHT22;62824;52.994;-3.936;2023-02-15T18:34:55;8.20;99.90
74384;DHT22;62824;52.994;-3.936;2023-02-15T18:37:22;8.20;99.90
74384;DHT22;62824;52.994;-3.936;2023-02-15T18:39:53;8.20;99.90
74384;DHT22;62824;52.994;-3.936;2023-02-15T18:42:24;8.20;99.90
74384;DHT22;62824;52.994;-3.936;2023-02-15T18:45:03;8.10;99.90
74384;DHT22;62824;52.994;-3.936;2023-02-15T18:47:35;8.20;99.90
74384;DHT22;62824;52.994;-3.936;2023-02-15T18:50:00;8.10;99.90
74384;DHT22;62824;52.994;-3.936;2023-02-15T18:52:29;8.10;99.90
74384;DHT22;62824;52.994;-3.936;2023-02-15T18:55:00;8.10;99.90
74384;DHT22;62824;52.994;-3.936;2023-02-15T18:57:27;8.10;99.90
74384;DHT22;62824;52.994;-3.936;2023-02-15T18:59:53;8.10;99.90
74384;DHT22;62824;52.994;-3.936;2023-02-15T19:02:19;8.00;99.90
74384;DHT22;62824;52.994;-3.936;2023-02-15T19:04:45;8.10;99.90
74384;DHT22;62824;52.994;-3.936;2023-02-15T19:07:16;8.10;99.90
74384;DHT22;62824;52.994;-3.936;2023-02-15T19:09:48;8.10;99.90
74384;DHT22;62824;52.994;-3.936;2023-02-15T19:12:14;8.20;99.90
74384;DHT22;62824;52.994;-3.936;2023-02-15T19:14:40;8.20;99.90
74384;DHT22;62824;52.994;-3.936;2023-02-15T19:17:16;8.10;99.90
74384;DHT22;62824;52.994;-3.936;2023-02-15T19:19:43;8.20;99.90